Time;durP1;ratioP1;P1;durP2;ratioP2;P2;SDS_P1;SDS_P2;PMS_P1;PMS_P2;Temp;Humidity;BMP_temperature;BMP_pressure;BME280_temperature;BME280_humidity;BME280_pressure;Samples;Min_cycle;Max_cycle;Signal;HPM_P1;HPM_P2
2021/01/24 00:00:55;;;;;;;14.27;5.30;;;;;;;2.17;87.96;99533.78;5027727;28;20170;-78
2021/01/24 00:03:43;;;;;;;;;;;;;;;;;;;;;
2021/01/24 00:06:09;;;;;;;11.40;5.27;;;;;;;2.19;88.39;99541.44;5036239;28;20117;-78
2021/01/24 00:08:43;;;;;;;15.23;5.03;;;;;;;2.21;88.10;99544.88;5031272;28;20065;-78
2021/01/24 00:11:26;;;;;;;11.40;5.77;;;;;;;2.20;87.99;99543.16;5026151;28;20038;-78
2021/01/24 00:14:26;;;;;;;9.83;5.43;;;;;;;2.24;87.96;99537.38;5026827;28;20378;-78
2021/01/24 00:17:13;;;;;;;8.57;5.33;;;;;;;2.24;87.87;99537.38;5032579;28;20033;-78
2021/01/24 00:19:47;;;;;;;10.77;5.10;;;;;;;2.27;87.67;99537.50;5028962;28;20025;-78
2021/01/24 00:22:19;;;;;;;10.57;5.63;;;;;;;2.19;88.08;99543.97;5026826;28;20044;-78
2021/01/24 00:24:44;;;;;;;10.50;4.90;;;;;;;2.25;87.94;99546.72;5033033;28;20025;-78
2021/01/24 00:27:18;;;;;;;10.68;6.10;;;;;;;2.22;88.35;99551.66;5030397;28;20027;-78
2021/01/24 00:29:54;;;;;;;10.90;5.33;;;;;;;2.25;88.23;99549.25;5037129;28;20032;-78
2021/01/24 00:32:19;;;;;;;14.83;5.70;;;;;;;2.23;89.23;99558.47;5037430;28;20041;-79
2021/01/24 00:34:45;;;;;;;8.65;4.57;;;;;;;2.19;89.36;99554.09;5038587;28;20052;-79
2021/01/24 00:37:12;;;;;;;11.40;5.78;;;;;;;2.10;89.79;99556.31;5042341;28;20089;-79
2021/01/24 00:39:38;;;;;;;13.90;5.63;;;;;;;2.11;90.16;99555.50;5041901;28;20029;-80
2021/01/24 00:42:04;;;;;;;12.73;5.60;;;;;;;2.17;90.09;99553.19;5040050;23;20033;-75
2021/01/24 00:44:29;;;;;;;16.02;5.88;;;;;;;2.07;90.14;99551.13;5012175;28;20060;-76
2021/01/24 00:46:55;;;;;;;10.17;5.70;;;;;;;1.95;90.91;99554.09;5012913;28;20041;-77
2021/01/24 00:49:20;;;;;;;10.52;5.40;;;;;;;2.03;91.09;99554.34;5011751;28;20029;-77
2021/01/24 00:51:45;;;;;;;12.95;4.75;;;;;;;2.05;90.84;99547.69;5022045;28;20022;-76
2021/01/24 00:54:11;;;;;;;8.82;4.82;;;;;;;2.14;90.69;99560.66;5025258;28;20476;-76
2021/01/24 00:56:36;;;;;;;8.57;4.90;;;;;;;2.19;90.54;99561.69;5025665;28;20040;-76
2021/01/24 00:59:01;;;;;;;7.95;3.95;;;;;;;2.18;89.90;99559.97;5029289;28;20013;-76
2021/01/24 01:01:26;;;;;;;11.73;5.00;;;;;;;2.17;89.83;99553.19;5028583;28;20049;-78
2021/01/24 01:03:52;;;;;;;11.73;5.00;;;;;;;2.06;90.01;99559.53;5049618;28;20107;-78
2021/01/24 01:06:17;;;;;;;12.07;5.37;;;;;;;2.00;90.05;99559.31;5034095;28;20272;-79
2021/01/24 01:08:43;;;;;;;10.40;4.70;;;;;;;1.99;90.24;99560.13;5033714;28;20296;-79
2021/01/24 01:11:08;;;;;;;13.63;4.93;;;;;;;1.94;90.31;99572.59;5049375;28;20018;-79
2021/01/24 01:13:33;;;;;;;8.60;4.10;;;;;;;1.82;90.03;99565.41;5032255;28;20399;-78
2021/01/24 01:16:01;;;;;;;11.67;4.83;;;;;;;1.82;90.69;99573.00;5034282;28;20033;-79
2021/01/24 01:18:26;;;;;;;11.03;5.27;;;;;;;1.73;90.68;99570.13;5048980;28;20029;-79
2021/01/24 01:20:51;;;;;;;9.37;4.87;;;;;;;1.63;90.70;99574.78;5033740;28;20017;-79
2021/01/24 01:23:16;;;;;;;13.43;4.80;;;;;;;1.60;90.95;99572.97;5049031;28;20282;-79
2021/01/24 01:25:42;;;;;;;8.98;4.75;;;;;;;1.57;91.17;99582.97;5049142;28;20084;-78
2021/01/24 01:28:07;;;;;;;11.80;5.93;;;;;;;1.57;91.87;99582.97;5048641;28;20020;-78
2021/01/24 01:30:32;;;;;;;10.90;5.03;;;;;;;1.65;91.78;99586.69;5048937;28;20024;-79
2021/01/24 01:32:57;;;;;;;12.40;4.97;;;;;;;1.72;91.47;99587.78;5032409;28;20279;-78
2021/01/24 01:35:23;;;;;;;9.93;5.28;;;;;;;1.92;90.77;99588.53;5033502;28;20028;-79
2021/01/24 01:37:48;;;;;;;11.57;5.28;;;;;;;1.91;90.56;99589.34;5048315;28;20104;-78
2021/01/24 01:40:13;;;;;;;13.13;5.60;;;;;;;1.99;90.42;99595.56;5048598;28;20024;-79
2021/01/24 01:42:39;;;;;;;13.07;5.80;;;;;;;2.06;90.08;99603.47;5048387;28;20276;-78
2021/01/24 01:45:06;;;;;;;13.10;5.30;;;;;;;2.09;89.94;99606.09;5032041;28;21838;-77
2021/01/24 01:47:32;;;;;;;11.67;5.83;;;;;;;2.09;89.96;99612.84;5033554;28;20025;-79
2021/01/24 01:49:58;;;;;;;11.20;5.47;;;;;;;2.01;90.37;99604.97;5032991;28;20545;-78
2021/01/24 01:52:28;;;;;;;15.00;6.20;;;;;;;2.05;90.09;99613.53;5033035;28;22442;-79
2021/01/24 01:54:56;;;;;;;11.37;5.87;;;;;;;2.08;90.11;99611.09;5033114;28;20379;-78
2021/01/24 01:57:22;;;;;;;12.27;5.67;;;;;;;2.07;89.89;99604.31;5048454;28;20035;-78
2021/01/24 01:59:48;;;;;;;;;;;;;;;2.06;90.05;99608.53;5035724;28;20067;-79
2021/01/24 02:02:38;;;;;;;12.07;5.27;;;;;;;2.08;90.04;99604.38;5037760;28;19947;-79
2021/01/24 02:05:36;;;;;;;13.20;5.80;;;;;;;2.05;89.89;99606.78;5034123;28;20032;-77
2021/01/24 02:08:15;;;;;;;10.17;4.83;;;;;;;2.00;90.21;99610.81;5032026;28;20021;-78
2021/01/24 02:10:49;;;;;;;12.80;5.37;;;;;;;1.98;90.45;99616.66;5031934;28;20112;-80
2021/01/24 02:13:19;;;;;;;9.70;4.50;;;;;;;2.05;90.14;99616.06;5033667;28;20021;-79
2021/01/24 02:15:45;;;;;;;9.13;4.37;;;;;;;2.05;90.09;99627.06;5033704;28;20092;-79
2021/01/24 02:18:12;;;;;;;7.25;3.65;;;;;;;2.05;90.00;99623.66;5032796;28;20051;-79
2021/01/24 02:21:14;;;;;;;8.57;3.53;;;;;;;2.06;89.83;99626.25;5032631;28;20071;-79
2021/01/24 02:23:41;;;;;;;6.93;2.90;;;;;;;2.10;89.52;99623.03;5031879;28;20021;-78
2021/01/24 02:26:19;;;;;;;7.30;3.13;;;;;;;2.05;89.42;99633.78;5032238;28;20055;-80
2021/01/24 02:29:05;;;;;;;6.00;3.20;;;;;;;2.04;89.60;99638.00;5030228;28;20021;-79
2021/01/24 02:31:31;;;;;;;5.63;3.43;;;;;;;2.05;89.59;99647.31;5047493;28;20048;-78
2021/01/24 02:33:58;;;;;;;8.40;3.07;;;;;;;2.04;89.59;99643.06;5048025;28;20426;-80
2021/01/24 02:36:26;;;;;;;9.23;3.10;;;;;;;2.05;89.29;99651.53;5047782;28;20032;-78
2021/01/24 02:38:52;;;;;;;6.70;2.90;;;;;;;1.96;89.68;99658.78;5031687;28;20060;-78
2021/01/24 02:41:18;;;;;;;7.60;2.70;;;;;;;2.00;89.72;99666.53;5047310;28;20017;-79
2021/01/24 02:43:45;;;;;;;5.40;2.55;;;;;;;1.97;89.79;99661.38;5031953;28;20130;-79
2021/01/24 02:46:12;;;;;;;5.73;2.77;;;;;;;1.92;89.94;99667.03;5032141;28;20152;-79
2021/01/24 02:48:38;;;;;;;4.10;2.23;;;;;;;1.97;90.28;99660.50;5030333;28;20111;-80
2021/01/24 02:51:05;;;;;;;8.88;3.08;;;;;;;2.00;90.00;99670.75;5031800;28;20511;-77
2021/01/24 02:53:33;;;;;;;5.37;2.80;;;;;;;2.02;90.29;99670.00;5030545;28;20132;-79
2021/01/24 02:56:00;;;;;;;5.97;2.93;;;;;;;2.02;90.63;99671.66;5047026;28;20063;-79
2021/01/24 02:58:27;;;;;;;4.20;2.50;;;;;;;2.06;90.37;99676.03;5030268;28;20375;-79
2021/01/24 03:00:52;;;;;;;8.30;2.37;;;;;;;2.09;90.25;99677.03;5047079;28;20348;-79
2021/01/24 03:03:18;;;;;;;4.68;1.95;;;;;;;2.09;90.27;99681.22;5046244;28;20060;-79
2021/01/24 03:05:43;;;;;;;5.03;1.77;;;;;;;2.08;90.12;99687.97;5032396;28;20056;-78
2021/01/24 03:08:09;;;;;;;3.90;1.33;;;;;;;2.10;90.31;99698.16;5033017;28;20036;-79
2021/01/24 03:10:34;;;;;;;6.47;1.17;;;;;;;2.03;90.28;99686.06;5033229;28;20052;-79
2021/01/24 03:13:06;;;;;;;4.15;1.20;;;;;;;2.03;91.24;99711.38;5047594;28;20087;-80
2021/01/24 03:15:33;;;;;;;4.70;1.10;;;;;;;2.02;91.19;99710.53;5032214;28;20030;-77
2021/01/24 03:18:00;;;;;;;1.67;0.93;;;;;;;1.99;91.58;99710.41;5047478;28;20120;-80
2021/01/24 03:20:28;;;;;;;1.80;0.80;;;;;;;1.99;91.43;99714.59;5030662;28;20021;-80
2021/01/24 03:22:54;;;;;;;2.03;0.53;;;;;;;1.95;91.38;99717.78;5030781;28;20028;-78
2021/01/24 03:25:20;;;;;;;3.75;0.70;;;;;;;1.93;91.19;99721.94;5047108;28;20025;-78
2021/01/24 03:27:46;;;;;;;1.47;0.50;;;;;;;1.94;91.00;99719.47;5046565;28;20107;-79
2021/01/24 03:30:12;;;;;;;1.58;0.57;;;;;;;1.95;90.84;99728.81;5031708;28;20026;-79
2021/01/24 03:32:38;;;;;;;1.08;0.45;;;;;;;1.93;90.87;99735.47;5031104;28;20540;-79
2021/01/24 03:35:05;;;;;;;1.38;0.52;;;;;;;1.91;90.77;99746.34;5047073;28;20115;-77
2021/01/24 03:37:30;;;;;;;1.43;0.40;;;;;;;1.86;91.44;99749.56;5046606;28;20052;-80
2021/01/24 03:39:56;;;;;;;1.90;0.70;;;;;;;1.73;91.08;99756.59;5036568;28;20096;-79
2021/01/24 03:42:21;;;;;;;1.17;0.50;;;;;;;1.52;91.03;99762.47;5056952;28;20041;-80
2021/01/24 03:44:46;;;;;;;0.73;0.40;;;;;;;1.36;91.15;99760.13;5037239;28;20022;-80
2021/01/24 03:47:12;;;;;;;1.47;0.43;;;;;;;1.22;91.77;99754.44;5034706;28;20272;-82
2021/01/24 03:49:38;;;;;;;5.90;0.85;;;;;;;1.15;91.82;99760.06;5034058;28;20045;-82
2021/01/24 03:52:04;;;;;;;1.43;0.53;;;;;;;1.13;92.02;99766.72;5035353;28;20028;-82
2021/01/24 03:54:29;;;;;;;2.25;0.30;;;;;;;1.07;92.36;99755.47;5037258;28;20021;-81
2021/01/24 03:56:54;;;;;;;2.03;0.40;;;;;;;1.03;92.31;99759.53;5051080;28;20064;-82
2021/01/24 03:59:20;;;;;;;1.83;0.50;;;;;;;1.02;92.60;99767.91;5036510;28;20026;-84
2021/01/24 04:01:45;;;;;;;2.83;0.40;;;;;;;0.98;92.62;99776.16;5036172;28;20013;-85
2021/01/24 04:04:10;;;;;;;0.70;0.30;;;;;;;0.97;92.88;99781.13;5036389;28;20418;-84
2021/01/24 04:06:36;;;;;;;2.23;0.60;;;;;;;0.91;92.76;99780.06;5037891;28;20108;-83
2021/01/24 04:09:01;;;;;;;4.28;0.60;;;;;;;0.87;92.90;99763.03;5037901;28;20080;-83
2021/01/24 04:11:26;;;;;;;1.00;0.50;;;;;;;0.89;92.89;99769.00;5056062;28;20030;-84
2021/01/24 04:13:52;;;;;;;2.25;0.50;;;;;;;0.95;92.86;99768.41;5056429;28;20079;-84
2021/01/24 04:16:17;;;;;;;0.90;0.50;;;;;;;0.99;92.63;99777.91;5041203;28;20024;-84
2021/01/24 04:18:42;;;;;;;1.20;0.60;;;;;;;1.03;92.70;99772.16;5054127;28;20284;-82
2021/01/24 04:21:07;;;;;;;0.53;0.30;;;;;;;1.01;92.37;99768.72;5038699;28;20274;-81
2021/01/24 04:23:33;;;;;;;1.13;0.52;;;;;;;1.04;92.50;99773.03;5038851;28;20028;-84
2021/01/24 04:25:58;;;;;;;1.33;0.35;;;;;;;1.03;92.14;99773.84;5039047;28;20021;-82
2021/01/24 04:28:24;;;;;;;1.85;0.60;;;;;;;1.02;92.48;99778.03;5052457;28;20013;-82
2021/01/24 04:30:49;;;;;;;;;;;;;;;1.01;92.43;99776.28;5036049;28;20028;-83
2021/01/24 04:33:15;;;;;;;3.63;0.60;;;;;;;1.03;92.49;99779.75;5035736;28;19960;-82
2021/01/24 04:35:40;;;;;;;4.38;0.55;;;;;;;1.03;92.32;99772.16;5035417;28;20036;-83
2021/01/24 04:38:05;;;;;;;2.60;0.80;;;;;;;1.00;92.63;99779.63;5034508;28;20181;-80
2021/01/24 04:40:31;;;;;;;2.43;0.43;;;;;;;0.96;92.63;99785.31;5035720;28;20276;-81
2021/01/24 04:42:56;;;;;;;3.50;0.68;;;;;;;0.96;92.77;99785.31;5050531;28;20522;-81
2021/01/24 04:45:22;;;;;;;4.03;0.93;;;;;;;0.95;92.76;99786.09;5034270;28;20033;-81
2021/01/24 04:47:48;;;;;;;1.73;0.50;;;;;;;0.94;92.88;99785.25;5035102;28;20028;-80
2021/01/24 04:50:13;;;;;;;;;;;;;;;0.98;92.75;99786.28;5036331;28;20096;-80
2021/01/24 04:52:39;;;;;;;3.17;0.70;;;;;;;0.92;92.90;99789.38;5033609;28;19955;-79
2021/01/24 04:55:05;;;;;;;1.92;0.60;;;;;;;0.89;92.97;99790.91;5035323;28;20013;-79
2021/01/24 04:57:31;;;;;;;1.80;0.63;;;;;;;0.91;92.85;99791.84;5035019;28;20029;-81
2021/01/24 04:59:56;;;;;;;5.22;1.00;;;;;;;0.90;93.03;99802.75;5033423;28;20063;-80
2021/01/24 05:02:22;;;;;;;2.90;0.85;;;;;;;0.86;93.22;99800.88;5034522;28;20029;-80
2021/01/24 05:04:47;;;;;;;2.22;0.70;;;;;;;0.69;93.13;99802.66;5034803;28;20442;-80
2021/01/24 05:07:13;;;;;;;1.63;0.70;;;;;;;0.67;93.23;99804.25;5035143;28;20386;-80
2021/01/24 05:09:41;;;;;;;1.65;0.70;;;;;;;0.63;93.10;99808.25;5034155;28;20490;-80
2021/01/24 05:12:10;;;;;;;1.83;0.80;;;;;;;0.78;93.45;99808.13;5032353;28;20386;-80
2021/01/24 05:14:35;;;;;;;2.03;0.77;;;;;;;0.79;93.61;99806.47;5033481;28;20013;-80
2021/01/24 05:17:00;;;;;;;3.15;0.90;;;;;;;0.78;93.70;99812.31;5039826;28;20055;-82
2021/01/24 05:19:26;;;;;;;1.70;0.88;;;;;;;0.87;93.93;99816.13;5041987;28;20017;-81
2021/01/24 05:21:52;;;;;;;3.40;0.80;;;;;;;0.93;93.82;99823.09;5037294;28;20025;-82
2021/01/24 05:24:19;;;;;;;2.13;0.77;;;;;;;1.08;93.56;99828.00;5053886;28;20075;-81
2021/01/24 05:26:46;;;;;;;3.93;0.90;;;;;;;1.11;93.37;99836.59;5060302;28;20021;-83
2021/01/24 05:29:42;;;;;;;2.27;0.90;;;;;;;1.11;93.17;99833.19;5044102;28;20364;-85
2021/01/24 05:32:08;;;;;;;2.07;0.77;;;;;;;1.10;93.06;99841.56;5038948;28;20104;-85
2021/01/24 05:34:34;;;;;;;3.83;0.90;;;;;;;1.10;93.19;99844.09;5056715;28;20474;-84
2021/01/24 05:37:00;;;;;;;2.13;0.75;;;;;;;1.11;93.21;99841.66;5057676;28;20112;-83
2021/01/24 05:39:28;;;;;;;6.63;1.10;;;;;;;1.06;93.01;99825.41;5043377;28;20112;-84
2021/01/24 05:41:55;;;;;;;1.93;0.90;;;;;;;0.92;93.24;99831.47;5035864;28;20356;-85
2021/01/24 05:44:21;;;;;;;4.13;1.07;;;;;;;0.86;93.94;99836.25;5037345;28;20028;-84
2021/01/24 05:46:48;;;;;;;4.03;1.10;;;;;;;0.98;93.98;99841.03;5053372;28;20037;-86
2021/01/24 05:49:20;;;;;;;;;;;;;;;1.16;93.55;99847.78;5036417;28;20047;-84
2021/01/24 05:51:58;;;;;;;4.53;1.20;;;;;;;1.15;92.90;99851.09;5049253;28;19913;-83
2021/01/24 05:54:44;;;;;;;3.73;1.20;;;;;;;1.14;92.97;99858.63;5051305;28;20375;-84
2021/01/24 05:57:14;;;;;;;1.47;0.87;;;;;;;1.07;93.19;99857.47;5048413;28;20021;-83
2021/01/24 05:59:50;;;;;;;3.87;1.20;;;;;;;1.01;93.05;99861.41;5035106;28;20154;-84
2021/01/24 06:02:20;;;;;;;2.40;0.90;;;;;;;0.79;93.14;99859.53;5030694;28;20022;-84
2021/01/24 06:04:46;;;;;;;4.00;1.13;;;;;;;0.56;94.41;99854.25;5034266;28;20021;-81
2021/01/24 06:07:13;;;;;;;3.83;1.35;;;;;;;0.54;94.22;99860.91;5033519;28;20036;-82
2021/01/24 06:09:38;;;;;;;2.77;1.07;;;;;;;0.55;94.28;99859.25;5049687;28;20024;-84
2021/01/24 06:12:07;;;;;;;5.15;1.50;;;;;;;0.63;94.66;99873.09;5033802;28;20430;-81
2021/01/24 06:14:34;;;;;;;3.03;1.30;;;;;;;0.86;94.51;99875.06;5030585;28;20048;-81
2021/01/24 06:17:08;;;;;;;3.17;1.40;;;;;;;0.84;94.28;99873.25;5032343;28;20132;-85
2021/01/24 06:19:42;;;;;;;2.87;1.33;;;;;;;0.85;94.15;99877.50;5033731;28;20014;-80
2021/01/24 06:22:14;;;;;;;4.13;1.63;;;;;;;0.88;94.51;99873.47;5033174;28;20017;-82
2021/01/24 06:24:45;;;;;;;3.17;1.57;;;;;;;0.83;94.52;99872.38;5032096;28;20491;-86
2021/01/24 06:27:12;;;;;;;3.20;1.40;;;;;;;0.72;94.25;99865.09;5048514;28;20033;-82
2021/01/24 06:29:41;;;;;;;2.33;0.80;;;;;;;0.69;94.00;99862.44;5045822;28;20029;-82
2021/01/24 06:32:06;;;;;;;2.13;0.87;;;;;;;0.61;93.80;99860.41;5048507;28;20023;-82
2021/01/24 06:34:37;;;;;;;2.05;0.75;;;;;;;0.54;94.28;99871.00;5048576;28;20100;-82
2021/01/24 06:37:08;;;;;;;2.10;0.90;;;;;;;0.49;93.92;99869.94;5048463;28;20021;-82
2021/01/24 06:39:42;;;;;;;3.80;1.07;;;;;;;0.43;94.20;99871.31;5048324;28;20021;-81
2021/01/24 06:42:08;;;;;;;3.70;1.10;;;;;;;0.35;94.02;99876.00;5064043;22;20074;-81
2021/01/24 06:44:40;;;;;;;;;;;;;;;0.32;94.30;99885.91;5012334;28;20025;-81
2021/01/24 06:47:37;;;;;;;1.43;0.77;;;;;;;0.23;93.95;99890.53;5012502;28;20004;-82
2021/01/24 06:50:03;;;;;;;2.13;0.93;;;;;;;0.13;93.93;99900.97;5011531;28;20424;-81
2021/01/24 06:52:28;;;;;;;2.63;1.20;;;;;;;0.08;94.04;99902.41;5012556;28;20057;-81
2021/01/24 06:54:53;;;;;;;2.72;1.15;;;;;;;0.05;94.26;99902.25;5012864;28;20476;-81
2021/01/24 06:57:19;;;;;;;2.28;1.10;;;;;;;0.03;94.23;99903.84;5013204;28;20018;-81
2021/01/24 06:59:45;;;;;;;3.78;0.85;;;;;;;0.02;94.54;99917.25;5013844;28;20862;-82
2021/01/24 07:02:36;;;;;;;3.20;1.23;;;;;;;0.03;94.50;99911.41;5011843;28;20022;-81
2021/01/24 07:05:12;;;;;;;3.77;1.00;;;;;;;0.06;94.56;99916.63;5007911;28;20125;-81
2021/01/24 07:07:40;;;;;;;3.15;1.25;;;;;;;0.09;94.61;99921.81;5012476;28;20030;-81
2021/01/24 07:10:08;;;;;;;2.57;1.13;;;;;;;0.12;94.82;99927.03;5014306;28;20030;-80
2021/01/24 07:12:42;;;;;;;4.37;1.10;;;;;;;0.11;95.00;99926.16;5012234;28;20021;-81
2021/01/24 07:15:10;;;;;;;3.33;1.13;;;;;;;0.19;94.77;99929.91;5013384;28;20118;-81
2021/01/24 07:17:36;;;;;;;3.07;1.00;;;;;;;0.12;94.71;99929.53;5014432;28;20198;-80
2021/01/24 07:20:03;;;;;;;;;;;;;;;0.08;94.71;99935.25;5014414;28;20045;-81
2021/01/24 07:22:29;;;;;;;3.00;1.10;;;;;;;0.04;94.90;99933.34;5011621;28;19917;-81
2021/01/24 07:24:55;;;;;;;;;;;;;;;0.01;94.96;99940.78;5013750;28;20028;-81
2021/01/24 07:27:23;;;;;;;3.53;1.37;;;;;;;-0.04;94.98;99936.31;5011875;28;19956;-81
2021/01/24 07:29:51;;;;;;;4.17;1.87;;;;;;;-0.07;94.73;99935.31;5012042;28;20018;-80
2021/01/24 07:32:23;;;;;;;5.47;1.93;;;;;;;-0.10;94.94;99941.06;5013769;28;20032;-81
2021/01/24 07:34:53;;;;;;;8.50;3.37;;;;;;;0.01;95.56;99948.34;5012103;28;20020;-81
2021/01/24 07:37:18;;;;;;;6.97;3.10;;;;;;;-0.05;95.92;99952.25;5012307;28;20032;-80
2021/01/24 07:39:45;;;;;;;9.32;3.30;;;;;;;0.08;95.48;99945.34;5017411;28;20021;-81
2021/01/24 07:42:21;;;;;;;5.50;3.00;;;;;;;0.01;95.85;99950.88;5018144;28;20018;-80
2021/01/24 07:44:46;;;;;;;8.73;3.50;;;;;;;-0.03;95.49;99953.22;5018516;28;20390;-80
2021/01/24 07:47:16;;;;;;;8.43;3.00;;;;;;;-0.06;95.63;99952.19;5018649;28;20014;-80
2021/01/24 07:49:41;;;;;;;6.17;2.93;;;;;;;-0.13;95.67;99956.06;5018552;28;20017;-80
2021/01/24 07:52:11;;;;;;;9.07;3.03;;;;;;;-0.12;95.80;99960.31;5020524;28;20017;-79
2021/01/24 07:54:39;;;;;;;6.90;3.00;;;;;;;-0.14;95.68;99981.22;5018209;28;20025;-80
2021/01/24 07:57:06;;;;;;;7.67;3.40;;;;;;;-0.19;95.53;99970.88;5020616;28;20064;-80
2021/01/24 07:59:32;;;;;;;10.60;4.13;;;;;;;-0.20;95.65;99978.38;5019167;28;20021;-80
2021/01/24 08:01:58;;;;;;;9.73;4.43;;;;;;;-0.15;95.90;99985.41;5019373;28;20072;-80
2021/01/24 08:04:23;;;;;;;10.88;4.75;;;;;;;-0.08;95.92;99989.97;5021924;28;20042;-79
2021/01/24 08:06:50;;;;;;;16.17;8.20;;;;;;;0.10;96.02;99985.03;5020536;28;20053;-80
2021/01/24 08:09:16;;;;;;;;;;;;;;;0.23;95.96;99989.03;5022173;28;20018;-79
2021/01/24 08:11:41;;;;;;;21.03;14.83;;;;;;;0.34;96.29;99977.81;5019606;28;20046;-79
2021/01/24 08:14:06;;;;;;;16.08;8.00;;;;;;;0.30;95.99;99980.97;5023006;28;20021;-79
2021/01/24 08:16:41;;;;;;;14.90;7.30;;;;;;;0.26;96.14;99990.03;5023562;28;20026;-80
2021/01/24 08:19:11;;;;;;;18.93;8.53;;;;;;;0.31;95.98;99990.28;5020793;28;20472;-80
2021/01/24 08:21:40;;;;;;;20.03;8.67;;;;;;;0.36;95.96;99988.00;5020421;28;20463;-79
2021/01/24 08:24:06;;;;;;;20.70;9.10;;;;;;;0.40;96.14;99990.75;5023019;28;20026;-80
2021/01/24 08:26:33;;;;;;;;;;;;;;;0.50;95.96;99987.88;5020479;28;20021;-80
2021/01/24 08:29:01;;;;;;;11.40;6.60;;;;;;;0.72;95.52;99991.47;5018451;28;19944;-79
2021/01/24 08:31:27;;;;;;;14.80;7.47;;;;;;;0.67;95.35;99995.44;5019500;28;20494;-79
2021/01/24 08:33:54;;;;;;;12.77;7.28;;;;;;;0.63;95.43;100002.84;5020864;28;20018;-79
2021/01/24 08:36:22;;;;;;;12.77;6.30;;;;;;;0.65;95.25;99992.84;5020502;28;20025;-78
2021/01/24 08:38:48;;;;;;;12.80;5.57;;;;;;;0.69;95.08;100001.44;5018787;28;20472;-79
2021/01/24 08:41:15;;;;;;;11.37;6.10;;;;;;;0.71;94.79;99997.34;5020298;28;20048;-80
2021/01/24 08:43:42;;;;;;;11.60;6.90;;;;;;;0.79;94.82;99999.44;5019906;28;20109;-79
2021/01/24 08:46:25;;;;;;;13.63;6.90;;;;;;;1.04;94.62;99998.97;5020868;28;20100;-80
2021/01/24 08:49:07;;;;;;;14.67;6.43;;;;;;;1.30;94.55;100006.91;5019379;28;20024;-79
2021/01/24 08:51:41;;;;;;;10.60;6.63;;;;;;;1.46;94.31;100009.34;5018525;28;20029;-79
2021/01/24 08:54:20;;;;;;;13.23;5.70;;;;;;;1.52;93.77;100017.22;5019897;28;20022;-78
2021/01/24 08:56:46;;;;;;;9.90;4.93;;;;;;;1.54;93.45;100020.69;5017144;28;20018;-79
2021/01/24 08:59:26;;;;;;;7.63;4.90;;;;;;;1.63;92.81;100022.81;5019576;28;20023;-79
2021/01/24 09:01:56;;;;;;;8.00;4.77;;;;;;;1.82;92.07;100030.41;5018165;28;20365;-79
2021/01/24 09:04:29;;;;;;;10.60;4.60;;;;;;;1.83;90.95;100027.97;5018155;28;20034;-78
2021/01/24 09:07:12;;;;;;;17.30;10.97;;;;;;;1.83;91.04;100027.97;5019879;28;20018;-79
2021/01/24 09:09:46;;;;;;;11.57;7.07;;;;;;;1.83;90.66;100029.63;5017331;28;20037;-78
2021/01/24 09:12:16;;;;;;;15.63;6.17;;;;;;;1.85;90.80;100020.44;5018971;28;20617;-78
2021/01/24 09:14:42;;;;;;;11.77;6.40;;;;;;;1.96;91.16;100029.41;5018865;28;20099;-79
2021/01/24 09:17:10;;;;;;;11.48;5.72;;;;;;;2.04;91.13;100028.06;5018255;28;20038;-78
2021/01/24 09:19:37;;;;;;;13.20;6.10;;;;;;;2.17;91.19;100027.78;5016156;28;20072;-79
2021/01/24 09:22:05;;;;;;;8.23;4.90;;;;;;;2.38;89.87;100032.94;5018170;28;20022;-78
2021/01/24 09:24:31;;;;;;;10.07;4.17;;;;;;;2.43;87.49;100023.00;5020582;28;20017;-79
2021/01/24 09:26:56;;;;;;;11.27;4.32;;;;;;;2.71;87.01;100032.63;5021088;28;20022;-79
2021/01/24 09:29:29;;;;;;;11.35;3.72;;;;;;;3.02;85.56;100032.22;5020946;28;20113;-78
2021/01/24 09:32:10;;;;;;;9.77;3.27;;;;;;;3.69;82.55;100024.72;5015777;28;20022;-78
2021/01/24 09:34:45;;;;;;;7.77;3.33;;;;;;;4.67;78.14;100032.50;5015299;28;20038;-80
2021/01/24 09:37:18;;;;;;;13.17;3.43;;;;;;;6.14;73.18;100030.34;5016807;28;20014;-79
2021/01/24 09:40:03;;;;;;;7.93;2.53;;;;;;;6.96;69.46;100030.81;5015740;28;20037;-80
2021/01/24 09:42:34;;;;;;;7.87;2.50;;;;;;;7.08;68.07;100028.56;5017525;28;20044;-79
2021/01/24 09:45:07;;;;;;;8.73;2.80;;;;;;;6.58;68.25;100040.91;5015369;28;20048;-79
2021/01/24 09:47:47;;;;;;;7.33;3.10;;;;;;;6.68;69.38;100030.13;5015627;28;20022;-79
2021/01/24 09:50:45;;;;;;;6.40;2.77;;;;;;;7.12;67.79;100027.81;5017126;28;20018;-79
2021/01/24 09:53:23;;;;;;;6.78;2.78;;;;;;;7.14;66.96;100031.25;5014946;28;20072;-78
2021/01/24 09:56:05;;;;;;;6.70;2.40;;;;;;;7.21;67.62;100032.31;5016726;28;20018;-79
2021/01/24 09:58:40;;;;;;;7.90;2.20;;;;;;;7.04;69.02;100037.84;5016840;28;20037;-80
2021/01/24 10:01:23;;;;;;;9.50;2.37;;;;;;;6.90;67.68;100038.34;5015306;28;20033;-78
2021/01/24 10:04:13;;;;;;;;;;;;;;;;;;;;;
2021/01/24 10:07:09;;;;;;;7.87;2.77;;;;;;;6.87;70.18;100031.47;5018196;28;20117;-79
2021/01/24 10:09:44;;;;;;;10.57;2.40;;;;;;;8.02;68.32;100038.41;5013516;28;20391;-79
2021/01/24 10:12:30;;;;;;;10.70;2.50;;;;;;;8.48;64.57;100035.94;5016314;28;20037;-78
2021/01/24 10:15:02;;;;;;;6.65;2.33;;;;;;;8.18;62.61;100034.47;5015187;28;20115;-79
2021/01/24 10:17:34;;;;;;;5.17;2.47;;;;;;;7.89;64.42;100035.56;5016426;28;20115;-79
2021/01/24 10:20:40;;;;;;;6.80;2.50;;;;;;;7.47;67.00;100038.88;5014333;28;20037;-79
2021/01/24 10:23:25;;;;;;;;;;;;;;;;;;;;;
2021/01/24 10:26:19;;;;;;;5.55;2.20;;;;;;;9.16;67.31;100026.06;5016993;28;20552;-79
2021/01/24 10:29:13;;;;;;;7.13;2.38;;;;;;;10.52;63.95;100033.91;5015416;28;20052;-79
2021/01/24 10:31:51;;;;;;;4.35;2.10;;;;;;;10.82;56.49;100023.09;5013833;28;20065;-79
2021/01/24 10:34:34;;;;;;;6.55;2.10;;;;;;;11.44;56.49;100025.31;5013689;28;20029;-80
2021/01/24 10:37:28;;;;;;;8.00;1.95;;;;;;;11.77;54.81;100020.38;5015078;28;20029;-79
2021/01/24 10:40:13;;;;;;;8.10;1.92;;;;;;;12.21;50.15;100021.47;5016056;28;20499;-77
2021/01/24 10:43:06;;;;;;;5.55;2.38;;;;;;;12.79;48.47;100009.59;5035623;23;20053;-78
2021/01/24 10:45:37;;;;;;;7.30;2.25;;;;;;;12.97;49.99;100017.34;5052000;28;20039;-77
2021/01/24 10:48:16;;;;;;;6.88;2.33;;;;;;;13.14;50.89;100022.53;5051313;28;20436;-76
2021/01/24 10:50:46;;;;;;;3.90;1.48;;;;;;;13.12;49.43;100018.22;5051376;28;20021;-76
2021/01/24 10:53:22;;;;;;;7.07;2.10;;;;;;;13.65;49.92;100021.63;5037710;28;20040;-77
2021/01/24 10:55:47;;;;;;;8.50;2.23;;;;;;;13.04;48.56;100024.25;5034352;28;20053;-78
2021/01/24 10:58:13;;;;;;;;;;;;;;;13.17;48.58;100029.41;5038148;28;20272;-79
2021/01/24 11:00:44;;;;;;;8.25;1.88;;;;;;;12.91;47.15;100030.22;5036012;28;19917;-77
2021/01/24 11:03:10;;;;;;;6.53;1.90;;;;;;;13.16;46.58;100030.25;5032686;28;20052;-77
2021/01/24 11:05:47;;;;;;;5.95;2.28;;;;;;;13.59;47.66;100029.38;5036805;28;20026;-79
2021/01/24 11:08:12;;;;;;;5.15;1.70;;;;;;;13.26;48.74;100026.84;5037332;28;20029;-80
2021/01/24 11:10:37;;;;;;;;;;;;;;;13.75;47.75;100029.38;5039211;28;20024;-80
2021/01/24 11:13:03;;;;;;;4.63;1.70;;;;;;;14.06;46.62;100027.56;5037194;28;19913;-79
2021/01/24 11:15:30;;;;;;;;;;;;;;;13.60;46.57;100028.53;5037955;28;20045;-79
2021/01/24 11:17:56;;;;;;;6.13;1.88;;;;;;;13.93;45.88;100029.31;5037733;28;20401;-79
2021/01/24 11:20:24;;;;;;;;;;;;;;;13.47;48.52;100029.41;5038138;28;20095;-79
2021/01/24 11:22:49;;;;;;;4.13;1.85;;;;;;;13.51;44.68;100025.97;5035993;28;19943;-79
2021/01/24 11:25:14;;;;;;;;;;;;;;;12.98;46.11;100021.63;5036668;28;20484;-79
2021/01/24 11:27:40;;;;;;;7.68;1.90;;;;;;;13.40;47.22;100032.88;5035826;28;19913;-77
2021/01/24 11:30:06;;;;;;;;;;;;;;;13.28;45.85;100028.56;5032220;28;20034;-78
2021/01/24 11:32:32;;;;;;;6.53;1.87;;;;;;;13.17;43.86;100026.81;5032497;28;19913;-78
2021/01/24 11:34:57;;;;;;;;;;;;;;;12.93;48.89;100028.50;5037805;28;20724;-80
2021/01/24 11:37:22;;;;;;;5.72;1.77;;;;;;;12.81;47.28;100031.09;5037724;28;19959;-79
2021/01/24 11:39:47;;;;;;;;;;;;;;;12.46;49.00;100031.00;5035395;28;20018;-79
2021/01/24 11:42:12;;;;;;;7.43;1.70;;;;;;;11.83;51.52;100033.31;5034236;28;20294;-78
2021/01/24 11:44:38;;;;;;;;;;;;;;;11.50;51.33;100028.78;5031279;28;20063;-77
2021/01/24 11:47:06;;;;;;;5.13;1.60;;;;;;;10.55;53.36;100033.94;5030548;28;19913;-77
2021/01/24 11:49:31;;;;;;;7.57;2.00;;;;;;;9.73;55.15;100038.00;5031072;28;20021;-78
2021/01/24 11:51:56;;;;;;;7.28;1.92;;;;;;;9.44;55.52;100038.47;5033000;28;20023;-80
2021/01/24 11:54:21;;;;;;;3.88;1.63;;;;;;;8.80;56.66;100034.84;5033503;28;20029;-80
2021/01/24 11:56:47;;;;;;;5.83;1.73;;;;;;;8.73;57.54;100038.97;5032185;28;20036;-79